Time;durP1;ratioP1;P1;durP2;ratioP2;P2;SDS_P1;SDS_P2;PMS_P1;PMS_P2;Temp;Humidity;BMP_temperature;BMP_pressure;BME280_temperature;BME280_humidity;BME280_pressure;Samples;Min_cycle;Max_cycle;Signal;HPM_P1;HPM_P2
2021/06/15 11:30:51;;;;;;;3.47;1.35;;;845.00;742.40;;;;;;5403374;22;20067;-68
2021/06/15 11:33:16;;;;;;;3.25;1.63;;;845.30;716.80;;;;;;5091621;28;20044;-68
2021/06/15 11:35:42;;;;;;;6.53;1.35;;;845.60;691.20;;;;;;5094029;28;20421;-69
2021/06/15 11:38:15;;;;;;;1.80;1.00;;;870.50;691.20;;;;;;5093973;28;20024;-68
2021/06/15 11:40:42;;;;;;;4.05;1.27;;;870.60;691.20;;;;;;5075636;28;20027;-68
2021/06/15 11:43:08;;;;;;;1.60;1.17;;;870.40;691.20;;;;;;5093938;28;20092;-68
2021/06/15 11:45:40;;;;;;;3.25;1.13;;;845.50;716.80;;;;;;5093557;28;20532;-68
2021/06/15 11:48:26;;;;;;;2.53;1.30;;;845.30;716.80;;;;;;5093941;28;20396;-68
2021/06/15 11:50:55;;;;;;;2.70;1.02;;;845.30;716.80;;;;;;5093774;28;20108;-68
2021/06/15 11:53:23;;;;;;;2.22;1.20;;;845.40;716.80;;;;;;5093676;28;20031;-69
2021/06/15 11:55:59;;;;;;;4.57;1.33;;;845.40;716.80;;;;;;5093898;28;20103;-68
2021/06/15 11:58:29;;;;;;;7.95;1.77;;;845.60;716.80;;;;;;5093817;28;20475;-68
2021/06/15 12:01:04;;;;;;;3.42;1.15;;;870.40;716.80;;;;;;5093558;28;20059;-69
2021/06/15 12:03:47;;;;;;;5.15;2.00;;;870.50;691.20;;;;;;5093639;28;20036;-69
2021/06/15 12:06:17;;;;;;;4.05;1.00;;;870.80;691.20;;;;;;5093812;28;20028;-69
2021/06/15 12:08:48;;;;;;;4.55;1.10;;;870.70;691.20;;;;;;5093631;28;20027;-68
2021/06/15 12:11:16;;;;;;;9.25;1.48;;;870.80;691.20;;;;;;5093726;28;20035;-68
2021/06/15 12:13:44;;;;;;;8.38;1.40;;;870.80;691.20;;;;;;5093783;28;20350;-68
2021/06/15 12:16:16;;;;;;;7.03;1.42;;;870.60;691.20;;;;;;5093589;28;20110;-68
2021/06/15 12:18:44;;;;;;;4.97;1.58;;;870.60;691.20;;;;;;5093478;28;20017;-69
2021/06/15 12:21:26;;;;;;;3.85;1.08;;;870.60;691.20;;;;;;5093598;28;20031;-69
2021/06/15 12:23:58;;;;;;;5.03;1.17;;;870.60;716.80;;;;;;5096694;28;20043;-69
2021/06/15 12:26:41;;;;;;;2.30;1.05;;;870.40;691.20;;;;;;5076892;28;20024;-68
2021/06/15 12:29:09;;;;;;;5.55;1.20;;;845.50;716.80;;;;;;5077168;28;20016;-69
2021/06/15 12:31:37;;;;;;;3.90;1.10;;;845.50;691.20;;;;;;5076600;28;20081;-69
2021/06/15 12:34:08;;;;;;;3.25;1.05;;;870.40;691.20;;;;;;5076958;28;20508;-68
2021/06/15 12:36:55;;;;;;;1.83;1.10;;;870.40;716.80;;;;;;5077090;28;20032;-69
2021/06/15 12:39:36;;;;;;;3.33;1.02;;;845.50;716.80;;;;;;5076882;28;20040;-69
2021/06/15 12:42:12;;;;;;;8.43;1.00;;;845.10;716.80;;;;;;5076672;28;20473;-68
2021/06/15 12:44:40;;;;;;;4.00;1.00;;;844.90;742.40;;;;;;5076731;28;20072;-68
2021/06/15 12:47:10;;;;;;;2.17;0.98;;;844.90;742.40;;;;;;5076727;28;20526;-69
2021/06/15 12:49:36;;;;;;;2.58;1.27;;;844.80;742.40;;;;;;5081533;28;20046;-68
2021/06/15 12:52:10;;;;;;;6.53;1.25;;;820.10;716.80;;;;;;5095070;28;20077;-69
2021/06/15 12:54:40;;;;;;;5.03;1.10;;;844.80;742.40;;;;;;5095193;28;20024;-69
2021/06/15 12:57:08;;;;;;;3.38;1.30;;;844.90;742.40;;;;;;5092768;28;20108;-68
2021/06/15 12:59:37;;;;;;;6.50;1.10;;;845.00;742.40;;;;;;5095045;28;20477;-68
2021/06/15 13:02:17;;;;;;;3.28;0.90;;;845.10;716.80;;;;;;5092156;28;20035;-69
2021/06/15 13:04:54;;;;;;;3.78;1.05;;;845.30;716.80;;;;;;5092214;28;20031;-67
2021/06/15 13:07:21;;;;;;;2.53;1.35;;;845.30;716.80;;;;;;5100084;28;20401;-68
2021/06/15 13:09:48;;;;;;;3.47;1.13;;;845.20;742.40;;;;;;5106838;28;20482;-68
2021/06/15 13:12:19;;;;;;;2.83;0.98;;;844.90;742.40;;;;;;5100010;28;20077;-68
2021/06/15 13:14:56;;;;;;;1.65;0.93;;;844.80;716.80;;;;;;5096530;28;20445;-69
2021/06/15 13:17:24;;;;;;;5.03;1.08;;;819.90;716.80;;;;;;5096354;28;20028;-69
2021/06/15 13:19:52;;;;;;;1.58;0.88;;;819.90;716.80;;;;;;5096386;28;20020;-68
2021/06/15 13:22:26;;;;;;;6.75;1.10;;;820.00;716.80;;;;;;5096405;28;20024;-70
2021/06/15 13:24:52;;;;;;;4.25;1.10;;;819.90;716.80;;;;;;5095133;28;20166;-68
2021/06/15 13:27:40;;;;;;;1.77;1.10;;;819.80;742.40;;;;;;5093677;28;20106;-68
2021/06/15 13:30:21;;;;;;;1.73;0.90;;;819.70;742.40;;;;;;5095090;28;20016;-68
2021/06/15 13:32:59;;;;;;;4.72;1.00;;;819.40;768.00;;;;;;5094637;28;20488;-68
2021/06/15 13:35:27;;;;;;;2.25;1.00;;;819.20;768.00;;;;;;5095025;28;20393;-68
2021/06/15 13:38:01;;;;;;;1.73;1.10;;;819.30;768.00;;;;;;5094481;28;20031;-68
2021/06/15 13:40:27;;;;;;;2.35;1.35;;;819.30;768.00;;;;;;5092563;28;20052;-68
2021/06/15 13:42:56;;;;;;;1.50;1.05;;;819.20;768.00;;;;;;5093695;28;20048;-68
2021/06/15 13:45:33;;;;;;;3.15;1.15;;;819.20;768.00;;;;;;5094434;28;20058;-68
2021/06/15 13:47:59;;;;;;;1.67;0.90;;;819.30;768.00;;;;;;5094359;28;20047;-69
2021/06/15 13:50:25;;;;;;;2.70;0.90;;;819.50;768.00;;;;;;5077692;28;20049;-68
2021/06/15 13:52:51;;;;;;;22.42;2.03;;;819.60;768.00;;;;;;5096465;28;20109;-69
2021/06/15 13:55:18;;;;;;;52.75;4.05;;;819.50;768.00;;;;;;5095766;28;20020;-68
2021/06/15 13:57:44;;;;;;;38.30;3.83;;;819.30;793.60;;;;;;5096039;28;20031;-69
2021/06/15 14:00:16;;;;;;;27.83;2.40;;;819.40;793.60;;;;;;5095072;28;20032;-70
2021/06/15 14:02:43;;;;;;;17.58;2.20;;;819.50;768.00;;;;;;5095721;28;20055;-65
2021/06/15 14:05:09;;;;;;;37.28;3.28;;;819.80;742.40;;;;;;5095461;28;20078;-71
2021/06/15 14:07:35;;;;;;;33.65;3.22;;;819.90;768.00;;;;;;5095308;28;20369;-68
2021/06/15 14:10:02;;;;;;;49.97;5.20;;;819.90;742.40;;;;;;5095305;28;20032;-67
2021/06/15 14:12:28;;;;;;;29.23;2.78;;;819.60;742.40;;;;;;5095520;28;20417;-67
2021/06/15 14:14:54;;;;;;;17.48;2.22;;;819.20;768.00;;;;;;5093838;28;20058;-68
2021/06/15 14:17:19;;;;;;;5.95;1.40;;;819.20;768.00;;;;;;5093787;28;20099;-67
2021/06/15 14:19:46;;;;;;;12.05;1.38;;;794.30;793.60;;;;;;5093837;28;20020;-68
2021/06/15 14:22:12;;;;;;;6.20;1.73;;;794.10;768.00;;;;;;5093582;28;20081;-68
2021/06/15 14:24:38;;;;;;;10.38;1.20;;;794.00;793.60;;;;;;5093796;28;20032;-67
2021/06/15 14:27:04;;;;;;;6.20;1.50;;;793.80;793.60;;;;;;5093946;28;20076;-68
2021/06/15 14:29:31;;;;;;;4.25;2.75;;;793.70;793.60;;;;;;5093696;28;20419;-68
2021/06/15 14:31:59;;;;;;;5.60;1.80;;;793.60;819.20;;;;;;5093476;28;20044;-68
2021/06/15 14:34:26;;;;;;;7.93;1.40;;;793.60;819.20;;;;;;5093476;28;20024;-67
2021/06/15 14:36:52;;;;;;;7.57;1.70;;;768.80;793.60;;;;;;5093400;28;20133;-67
2021/06/15 14:39:18;;;;;;;11.18;2.17;;;768.70;793.60;;;;;;5093038;28;20031;-68
2021/06/15 14:41:44;;;;;;;7.15;2.00;;;768.60;793.60;;;;;;5092271;28;20040;-67
2021/06/15 14:44:11;;;;;;;5.05;1.73;;;768.50;793.60;;;;;;5093603;28;20427;-68
2021/06/15 14:46:37;;;;;;;4.25;1.80;;;768.50;793.60;;;;;;5093899;28;20032;-68
2021/06/15 14:49:04;;;;;;;2.58;1.63;;;768.30;793.60;;;;;;5093973;28;20031;-68
2021/06/15 14:51:30;;;;;;;4.47;1.38;;;768.30;793.60;;;;;;5093409;28;20020;-68
2021/06/15 14:54:04;;;;;;;3.83;1.40;;;768.20;819.20;;;;;;5093824;28;20074;-68
2021/06/15 14:56:34;;;;;;;12.10;1.75;;;768.10;819.20;;;;;;5093789;28;20051;-68
2021/06/15 14:58:59;;;;;;;5.85;1.40;;;768.10;819.20;;;;;;5093554;28;20023;-68
2021/06/15 15:01:25;;;;;;;11.45;2.08;;;768.00;819.20;;;;;;5092456;28;20024;-67
2021/06/15 15:03:51;;;;;;;2.92;1.40;;;743.30;819.20;;;;;;5087272;28;20493;-67
2021/06/15 15:06:17;;;;;;;5.53;1.40;;;743.30;819.20;;;;;;5090577;28;20103;-67
2021/06/15 15:08:42;;;;;;;1.55;1.15;;;743.30;819.20;;;;;;5091522;28;20046;-67
2021/06/15 15:11:09;;;;;;;8.60;1.40;;;743.30;819.20;;;;;;5091990;28;20023;-68
2021/06/15 15:13:36;;;;;;;10.48;1.45;;;743.10;819.20;;;;;;5091164;28;20024;-67
2021/06/15 15:16:02;;;;;;;5.32;2.00;;;743.20;819.20;;;;;;5091042;28;20020;-69
2021/06/15 15:18:28;;;;;;;3.72;1.90;;;743.10;819.20;;;;;;5091719;28;20028;-69
2021/06/15 15:20:55;;;;;;;2.75;1.50;;;743.10;819.20;;;;;;5091478;28;20148;-68
2021/06/15 15:23:22;;;;;;;6.78;1.95;;;743.10;844.80;;;;;;5089335;28;20039;-69
2021/06/15 15:25:48;;;;;;;8.93;1.88;;;743.00;844.80;;;;;;5092070;28;20092;-67
2021/06/15 15:28:15;;;;;;;9.20;1.77;;;743.00;844.80;;;;;;5091194;28;20116;-69
2021/06/15 15:30:41;;;;;;;5.30;1.60;;;742.90;844.80;;;;;;5088223;28;20074;-68
2021/06/15 15:33:07;;;;;;;5.18;2.20;;;742.90;844.80;;;;;;5092894;28;20060;-68
2021/06/15 15:35:33;;;;;;;4.53;1.55;;;742.70;844.80;;;;;;5093063;28;20028;-68
2021/06/15 15:37:59;;;;;;;3.58;1.10;;;742.70;844.80;;;;;;5091287;28;20024;-68
2021/06/15 15:40:25;;;;;;;5.75;1.20;;;742.60;870.40;;;;;;5091561;28;20031;-68
2021/06/15 15:42:51;;;;;;;4.93;1.20;;;742.60;870.40;;;;;;5091990;28;20162;-69
2021/06/15 15:45:20;;;;;;;6.85;1.50;;;742.50;870.40;;;;;;5092953;28;20491;-69
2021/06/15 15:47:49;;;;;;;5.55;1.80;;;742.50;870.40;;;;;;5093106;28;20095;-68
2021/06/15 15:50:17;;;;;;;7.05;1.30;;;742.40;870.40;;;;;;5091598;28;20039;-68
2021/06/15 15:52:43;;;;;;;2.50;1.60;;;742.40;870.40;;;;;;5093166;28;20032;-68
2021/06/15 15:55:10;;;;;;;7.63;1.60;;;742.40;870.40;;;;;;5093140;28;20119;-68
2021/06/15 15:57:38;;;;;;;4.50;1.98;;;742.40;870.40;;;;;;5094658;28;20421;-69
2021/06/15 16:00:07;;;;;;;6.43;1.50;;;717.60;844.80;;;;;;5096439;28;20039;-69
2021/06/15 16:02:33;;;;;;;4.28;1.50;;;717.60;844.80;;;;;;5077987;28;20028;-68
2021/06/15 16:04:59;;;;;;;6.75;1.60;;;717.60;844.80;;;;;;5099014;28;20456;-68
2021/06/15 16:07:25;;;;;;;12.07;2.10;;;717.50;870.40;;;;;;5097329;28;20016;-69
2021/06/15 16:09:51;;;;;;;12.98;1.88;;;717.50;870.40;;;;;;5097167;28;20025;-69
2021/06/15 16:12:17;;;;;;;8.65;1.60;;;717.50;870.40;;;;;;5096767;28;20020;-69
2021/06/15 16:14:42;;;;;;;5.63;1.35;;;717.50;870.40;;;;;;5116941;28;20023;-69
2021/06/15 16:17:08;;;;;;;22.20;1.95;;;717.40;870.40;;;;;;5117236;28;20023;-69
2021/06/15 16:19:34;;;;;;;11.82;1.80;;;717.30;844.80;;;;;;5117260;28;20361;-69
2021/06/15 16:22:00;;;;;;;8.93;1.50;;;717.30;870.40;;;;;;5104753;28;20028;-71
2021/06/15 16:24:26;;;;;;;4.45;2.05;;;717.30;844.80;;;;;;5096664;28;20119;-69
2021/06/15 16:26:52;;;;;;;6.28;1.63;;;717.30;870.40;;;;;;5101832;28;20027;-69
2021/06/15 16:29:18;;;;;;;4.10;1.73;;;717.30;844.80;;;;;;5118685;28;20348;-69
2021/06/15 16:31:44;;;;;;;2.00;1.20;;;717.30;870.40;;;;;;5117419;28;20051;-69
2021/06/15 16:34:09;;;;;;;6.00;1.45;;;717.30;870.40;;;;;;5117579;28;20349;-68
2021/06/15 16:36:35;;;;;;;17.45;2.30;;;717.20;870.40;;;;;;5114640;28;20032;-69
2021/06/15 16:39:01;;;;;;;9.32;1.85;;;717.20;870.40;;;;;;5097314;28;20032;-69
2021/06/15 16:41:29;;;;;;;8.70;1.52;;;717.20;844.80;;;;;;5096808;28;20051;-69
2021/06/15 16:43:54;;;;;;;0.93;0.82;;;717.00;844.80;;;;;;5097039;28;20473;-68
2021/06/15 16:46:21;;;;;;;2.22;1.15;;;717.00;870.40;;;;;;5096672;28;20026;-69
2021/06/15 16:48:48;;;;;;;6.63;1.20;;;716.90;870.40;;;;;;5104708;28;20401;-69
2021/06/15 16:51:14;;;;;;;3.47;1.30;;;716.90;870.40;;;;;;5106879;28;20032;-70
2021/06/15 16:53:41;;;;;;;9.50;1.45;;;716.80;870.40;;;;;;5111887;28;20461;-68
2021/06/15 16:56:07;;;;;;;30.25;3.78;;;716.80;896.00;;;;;;5092350;28;20036;-68
2021/06/15 16:58:33;;;;;;;21.05;2.60;;;716.80;896.00;;;;;;5098454;28;20020;-68
2021/06/15 17:00:59;;;;;;;14.27;2.00;;;692.10;896.00;;;;;;5107240;28;20024;-68
2021/06/15 17:03:25;;;;;;;10.15;1.58;;;692.00;870.40;;;;;;5105569;28;20028;-68
2021/06/15 17:05:50;;;;;;;5.25;1.60;;;692.00;870.40;;;;;;5108049;28;20042;-68
2021/06/15 17:08:16;;;;;;;6.05;1.30;;;692.00;870.40;;;;;;5115985;28;20405;-68
2021/06/15 17:10:42;;;;;;;6.53;1.83;;;691.90;896.00;;;;;;5116500;28;20023;-68
2021/06/15 17:13:08;;;;;;;8.52;1.30;;;691.90;896.00;;;;;;5104859;28;20016;-68
2021/06/15 17:15:36;;;;;;;3.55;1.08;;;691.80;896.00;;;;;;5105809;28;20503;-68
2021/06/15 17:18:06;;;;;;;8.50;1.40;;;691.80;896.00;;;;;;5106373;28;20028;-69
2021/06/15 17:20:32;;;;;;;3.38;1.73;;;691.70;896.00;;;;;;5105117;28;20049;-68
2021/06/15 17:22:58;;;;;;;6.63;1.50;;;691.70;896.00;;;;;;5104902;28;20448;-68
2021/06/15 17:25:25;;;;;;;5.88;1.50;;;691.70;896.00;;;;;;5106350;28;20084;-68
2021/06/15 17:27:51;;;;;;;9.55;1.50;;;691.70;921.60;;;;;;5104734;28;20369;-68
2021/06/15 17:30:20;;;;;;;5.13;1.50;;;691.70;921.60;;;;;;5105026;28;20024;-68
2021/06/15 17:32:46;;;;;;;3.67;1.63;;;691.60;921.60;;;;;;5105959;28;20036;-68
2021/06/15 17:35:15;;;;;;;4.13;1.48;;;691.60;921.60;;;;;;5104790;28;20055;-68
2021/06/15 17:37:41;;;;;;;3.78;1.60;;;691.50;921.60;;;;;;5104266;28;20023;-68
2021/06/15 17:40:10;;;;;;;4.82;1.33;;;691.50;947.20;;;;;;5101415;28;20099;-68
2021/06/15 17:42:37;;;;;;;10.93;1.58;;;691.50;947.20;;;;;;5095239;28;20048;-67
2021/06/15 17:45:05;;;;;;;6.05;1.70;;;691.50;947.20;;;;;;5093934;28;20036;-68
2021/06/15 17:47:30;;;;;;;6.57;1.45;;;691.40;972.80;;;;;;5094477;28;20016;-67
2021/06/15 17:49:56;;;;;;;9.48;1.67;;;691.30;972.80;;;;;;5093908;28;20381;-68
2021/06/15 17:52:22;;;;;;;5.57;1.52;;;691.30;972.80;;;;;;5093743;28;20078;-68
2021/06/15 17:54:48;;;;;;;4.18;1.40;;;691.20;972.80;;;;;;5093663;28;20028;-68
2021/06/15 17:57:14;;;;;;;7.47;1.65;;;691.20;998.40;;;;;;5094293;28;20019;-68
2021/06/15 17:59:42;;;;;;;2.55;1.40;;;666.40;998.40;;;;;;5093672;28;20059;-67
2021/06/15 18:02:09;;;;;;;5.78;1.73;;;666.30;998.40;;;;;;5093482;28;20031;-68
2021/06/15 18:04:39;;;;;;;5.63;1.50;;;666.30;998.40;;;;;;5093783;28;20043;-68
2021/06/15 18:07:09;;;;;;;5.57;1.80;;;666.20;998.40;;;;;;5093534;28;20077;-67
2021/06/15 18:09:35;;;;;;;5.15;1.60;;;666.10;998.40;;;;;;5093511;28;20532;-68
2021/06/15 18:12:01;;;;;;;3.50;1.40;;;666.00;1024.00;;;;;;5093717;28;20111;-68
2021/06/15 18:14:27;;;;;;;4.45;2.03;;;665.90;998.40;;;;;;5093506;28;20459;-67
2021/06/15 18:16:53;;;;;;;5.72;1.35;;;665.80;1024.00;;;;;;5095061;28;20020;-69
2021/06/15 18:19:19;;;;;;;3.70;1.73;;;665.70;1024.00;;;;;;5094603;28;20082;-68
2021/06/15 18:21:45;;;;;;;2.83;1.58;;;665.60;1024.00;;;;;;5095381;28;20024;-68
2021/06/15 18:24:11;;;;;;;4.93;1.60;;;665.60;1024.00;;;;;;5095194;28;20059;-67
2021/06/15 18:26:37;;;;;;;5.10;1.42;;;640.90;1024.00;;;;;;5093225;28;20098;-68
2021/06/15 18:29:03;;;;;;;4.93;1.75;;;640.80;1024.00;;;;;;5090556;28;20020;-68
2021/06/15 18:31:29;;;;;;;5.55;1.75;;;640.80;1024.00;;;;;;5093832;28;20532;-68
2021/06/15 18:33:54;;;;;;;6.85;1.90;;;640.70;1024.00;;;;;;5094946;28;20036;-67
2021/06/15 18:36:20;;;;;;;6.68;1.92;;;640.70;1024.00;;;;;;5094973;28;20024;-67
2021/06/15 18:38:46;;;;;;;4.60;1.60;;;640.70;1024.00;;;;;;5094857;28;20036;-67
2021/06/15 18:41:12;;;;;;;6.00;1.70;;;640.60;1049.60;;;;;;5095027;28;20026;-67
2021/06/15 18:43:38;;;;;;;4.55;1.88;;;640.60;1049.60;;;;;;5094646;28;20032;-68
2021/06/15 18:46:04;;;;;;;2.60;1.52;;;640.50;1049.60;;;;;;5094505;28;20028;-68
2021/06/15 18:48:30;;;;;;;7.13;1.92;;;640.30;1075.20;;;;;;5091905;28;20588;-68
2021/06/15 18:50:57;;;;;;;5.90;2.13;;;640.30;1075.20;;;;;;5094015;28;20030;-69
2021/06/15 18:53:23;;;;;;;7.32;1.95;;;640.30;1075.20;;;;;;5094133;28;20020;-69
2021/06/15 18:55:48;;;;;;;6.90;1.95;;;640.30;1075.20;;;;;;5093844;28;20070;-69
2021/06/15 18:58:15;;;;;;;8.95;2.38;;;640.20;1100.80;;;;;;5094115;28;20089;-70
2021/06/15 19:00:41;;;;;;;6.97;2.08;;;640.20;1100.80;;;;;;5094087;28;20032;-67
2021/06/15 19:03:09;;;;;;;3.80;1.95;;;640.20;1100.80;;;;;;5093466;28;20070;-68
2021/06/15 19:05:35;;;;;;;3.63;2.08;;;640.10;1100.80;;;;;;5093742;28;20515;-67
2021/06/15 19:08:01;;;;;;;10.98;2.83;;;615.30;1126.40;;;;;;5093728;28;20102;-66
2021/06/15 19:10:27;;;;;;;13.85;2.15;;;615.20;1126.40;;;;;;5093603;28;20024;-66
2021/06/15 19:12:53;;;;;;;7.32;2.25;;;615.20;1126.40;;;;;;5093136;28;20153;-66
2021/06/15 19:15:19;;;;;;;5.57;2.17;;;615.10;1152.00;;;;;;5093724;28;20020;-67
2021/06/15 19:17:45;;;;;;;6.18;1.92;;;615.10;1152.00;;;;;;5093856;28;20106;-66
2021/06/15 19:20:16;;;;;;;6.10;2.55;;;615.00;1152.00;;;;;;5093416;28;20020;-66
2021/06/15 19:22:42;;;;;;;7.63;2.00;;;614.90;1177.60;;;;;;5093475;28;20101;-67
2021/06/15 19:25:08;;;;;;;6.97;2.10;;;614.90;1177.60;;;;;;5092854;28;20032;-67
2021/06/15 19:27:34;;;;;;;6.43;2.20;;;614.80;1177.60;;;;;;5092158;28;20024;-66
2021/06/15 19:30:00;;;;;;;10.60;3.03;;;614.80;1177.60;;;;;;5091995;28;20111;-66
2021/06/15 19:32:26;;;;;;;13.60;4.75;;;614.70;1203.20;;;;;;5091354;28;20032;-67
2021/06/15 19:34:51;;;;;;;16.70;6.00;;;614.70;1203.20;;;;;;5091742;28;20024;-66
2021/06/15 19:37:17;;;;;;;25.58;10.57;;;614.60;1203.20;;;;;;5092092;28;20486;-66
2021/06/15 19:39:43;;;;;;;41.60;15.02;;;614.60;1203.20;;;;;;5092269;28;20085;-66
2021/06/15 19:42:09;;;;;;;58.17;21.75;;;614.50;1203.20;;;;;;5091436;28;20024;-66
2021/06/15 19:44:35;;;;;;;57.42;23.60;;;614.40;1228.80;;;;;;5091021;28;20042;-66
2021/06/15 19:47:00;;;;;;;56.65;23.92;;;614.40;1228.80;;;;;;5091863;28;20024;-66
2021/06/15 19:49:26;;;;;;;50.58;22.08;;;589.70;1254.40;;;;;;5091612;28;20020;-66
2021/06/15 19:51:52;;;;;;;44.10;19.15;;;589.70;1254.40;;;;;;5091566;28;20016;-66
2021/06/15 19:54:18;;;;;;;31.60;14.20;;;589.60;1254.40;;;;;;5091749;28;20020;-66
2021/06/15 19:56:44;;;;;;;31.20;11.60;;;589.50;1254.40;;;;;;5091445;28;20027;-66
2021/06/15 19:59:10;;;;;;;22.67;9.48;;;589.50;1280.00;;;;;;5091610;28;20020;-66
2021/06/15 20:01:35;;;;;;;14.57;7.70;;;589.40;1280.00;;;;;;5091798;28;20346;-66
2021/06/15 20:04:01;;;;;;;22.42;6.78;;;589.40;1280.00;;;;;;5091671;28;20035;-66
2021/06/15 20:06:27;;;;;;;11.00;4.70;;;589.30;1280.00;;;;;;5091610;28;20023;-66
2021/06/15 20:08:54;;;;;;;15.73;4.10;;;589.20;1280.00;;;;;;5073295;28;20036;-66
2021/06/15 20:11:20;;;;;;;8.95;3.22;;;589.20;1280.00;;;;;;5091676;28;20023;-66
2021/06/15 20:13:46;;;;;;;12.82;3.63;;;589.10;1280.00;;;;;;5091591;28;20024;-66
2021/06/15 20:16:12;;;;;;;8.95;2.88;;;589.10;1280.00;;;;;;5096886;28;20024;-66
2021/06/15 20:18:42;;;;;;;6.75;2.65;;;589.00;1305.60;;;;;;5091636;28;20027;-66
2021/06/15 20:21:08;;;;;;;8.38;3.75;;;589.00;1305.60;;;;;;5063563;28;20027;-66
2021/06/15 20:23:34;;;;;;;8.38;3.78;;;588.90;1305.60;;;;;;5092060;28;20354;-65
2021/06/15 20:26:00;;;;;;;6.47;2.80;;;588.90;1305.60;;;;;;5092156;28;20472;-64
2021/06/15 20:28:26;;;;;;;5.25;2.95;;;588.80;1305.60;;;;;;5092995;28;20074;-68
2021/06/15 20:30:52;;;;;;;8.13;2.70;;;588.80;1331.20;;;;;;5092914;28;20024;-70
2021/06/15 20:33:19;;;;;;;9.27;3.10;;;588.80;1331.20;;;;;;5092531;28;20051;-65
2021/06/15 20:35:45;;;;;;;16.65;3.78;;;564.10;1356.80;;;;;;5092820;28;20073;-64
2021/06/15 20:38:11;;;;;;;9.00;3.05;;;564.10;1356.80;;;;;;5091061;28;20020;-67
2021/06/15 20:40:38;;;;;;;6.82;2.92;;;564.00;1382.40;;;;;;5090993;28;20025;-65
2021/06/15 20:43:05;;;;;;;9.63;2.97;;;563.90;1382.40;;;;;;5092545;28;20020;-66
2021/06/15 20:45:31;;;;;;;7.40;3.33;;;563.80;1382.40;;;;;;5092044;28;20508;-65
2021/06/15 20:47:58;;;;;;;5.32;3.10;;;563.70;1408.00;;;;;;5095683;28;20054;-66
2021/06/15 20:50:25;;;;;;;13.88;3.35;;;563.70;1408.00;;;;;;5095919;28;20059;-65
2021/06/15 20:52:50;;;;;;;14.68;3.85;;;563.60;1408.00;;;;;;5095972;28;20473;-64
2021/06/15 20:55:17;;;;;;;10.82;4.28;;;563.60;1408.00;;;;;;5095793;28;20028;-65
2021/06/15 20:57:44;;;;;;;11.55;4.00;;;563.50;1408.00;;;;;;5095419;28;20039;-63
2021/06/15 21:00:11;;;;;;;8.73;4.25;;;563.40;1408.00;;;;;;5094498;28;20088;-64
2021/06/15 21:02:37;;;;;;;9.55;3.92;;;563.40;1408.00;;;;;;5093829;28;20024;-64
2021/06/15 21:05:04;;;;;;;14.20;3.40;;;563.30;1408.00;;;;;;5094855;28;20036;-64
2021/06/15 21:07:30;;;;;;;12.68;3.30;;;563.30;1433.60;;;;;;5094329;28;20035;-65
2021/06/15 21:09:56;;;;;;;12.38;4.18;;;563.20;1433.60;;;;;;5093322;28;20032;-64
2021/06/15 21:12:21;;;;;;;9.73;3.58;;;563.20;1433.60;;;;;;5095711;28;20358;-63
2021/06/15 21:14:47;;;;;;;13.73;3.72;;;563.20;1433.60;;;;;;5095787;28;20081;-64
2021/06/15 21:17:13;;;;;;;10.27;3.38;;;563.20;1433.60;;;;;;5095717;28;20020;-65
2021/06/15 21:19:39;;;;;;;8.10;3.67;;;563.20;1433.60;;;;;;5096047;28;20052;-65
2021/06/15 21:22:05;;;;;;;11.45;3.72;;;538.50;1408.00;;;;;;5095360;28;20028;-65
2021/06/15 21:24:31;;;;;;;11.88;4.18;;;538.50;1408.00;;;;;;5094108;28;20043;-64
2021/06/15 21:26:57;;;;;;;7.55;3.88;;;538.40;1433.60;;;;;;5094521;28;20545;-64
2021/06/15 21:29:23;;;;;;;12.57;3.63;;;538.40;1433.60;;;;;;5095723;28;20028;-64
2021/06/15 21:31:49;;;;;;;8.95;3.67;;;538.30;1433.60;;;;;;5095434;28;20047;-64
2021/06/15 21:34:15;;;;;;;8.10;3.70;;;538.30;1433.60;;;;;;5095661;28;20032;-64
2021/06/15 21:36:42;;;;;;;10.00;3.83;;;538.30;1433.60;;;;;;5095527;28;20023;-63
2021/06/15 21:39:09;;;;;;;5.05;3.38;;;538.30;1433.60;;;;;;5095633;28;20020;-63
2021/06/15 21:41:36;;;;;;;8.23;3.67;;;538.30;1408.00;;;;;;5077430;28;20028;-64
2021/06/15 21:44:01;;;;;;;11.30;3.80;;;538.30;1433.60;;;;;;5095249;28;20111;-64
2021/06/15 21:46:27;;;;;;;5.30;3.17;;;538.30;1433.60;;;;;;5095238;28;20113;-64
2021/06/15 21:48:53;;;;;;;7.53;3.33;;;538.30;1433.60;;;;;;5094681;28;20039;-63
2021/06/15 21:51:19;;;;;;;8.38;3.15;;;538.30;1433.60;;;;;;5095099;28;20086;-63
2021/06/15 21:53:46;;;;;;;8.88;3.00;;;538.20;1433.60;;;;;;5093895;28;20415;-63
2021/06/15 21:56:12;;;;;;;7.55;3.08;;;538.20;1433.60;;;;;;5093926;28;20032;-63
2021/06/15 21:58:38;;;;;;;7.65;2.90;;;538.20;1433.60;;;;;;5094836;28;20412;-63
2021/06/15 22:01:04;;;;;;;5.60;3.25;;;538.20;1433.60;;;;;;5095325;28;20025;-64
2021/06/15 22:03:30;;;;;;;8.75;3.45;;;538.20;1433.60;;;;;;5093646;28;20032;-66
2021/06/15 22:05:56;;;;;;;6.50;3.15;;;538.20;1433.60;;;;;;5097322;28;20039;-64
2021/06/15 22:08:21;;;;;;;6.30;3.50;;;538.10;1433.60;;;;;;5102114;28;20047;-64
2021/06/15 22:10:48;;;;;;;6.93;3.15;;;538.10;1433.60;;;;;;5100659;28;20089;-64
2021/06/15 22:13:14;;;;;;;9.93;2.88;;;538.10;1433.60;;;;;;5094065;28;20020;-64
2021/06/15 22:15:40;;;;;;;7.18;3.38;;;538.10;1433.60;;;;;;5093295;28;20020;-64
2021/06/15 22:18:06;;;;;;;5.72;2.78;;;538.10;1459.20;;;;;;5095389;28;20377;-64
2021/06/15 22:20:32;;;;;;;9.13;2.78;;;538.00;1459.20;;;;;;5094510;28;20035;-63
2021/06/15 22:22:58;;;;;;;4.57;2.88;;;538.00;1459.20;;;;;;5094413;28;20496;-64
2021/06/15 22:25:29;;;;;;;6.13;2.80;;;537.90;1459.20;;;;;;5093935;28;20070;-64
2021/06/15 22:27:55;;;;;;;6.18;2.80;;;537.80;1459.20;;;;;;5082711;28;20025;-64
2021/06/15 22:30:22;;;;;;;10.55;3.50;;;537.80;1459.20;;;;;;5095402;28;20016;-65
2021/06/15 22:32:50;;;;;;;5.47;2.80;;;537.80;1459.20;;;;;;5096412;28;20047;-64
2021/06/15 22:35:18;;;;;;;6.43;3.03;;;537.80;1459.20;;;;;;5093024;28;20023;-64
2021/06/15 22:37:44;;;;;;;8.57;3.15;;;537.70;1459.20;;;;;;5082388;28;20020;-64
2021/06/15 22:40:11;;;;;;;6.97;3.50;;;537.70;1459.20;;;;;;5104307;28;20088;-64
2021/06/15 22:42:37;;;;;;;7.80;2.92;;;537.70;1484.80;;;;;;5103177;28;20495;-66
2021/06/15 22:45:05;;;;;;;9.68;3.10;;;537.60;1484.80;;;;;;5102647;28;20035;-63
2021/06/15 22:47:31;;;;;;;11.25;3.45;;;537.70;1484.80;;;;;;5103795;28;20027;-64
2021/06/15 22:49:57;;;;;;;8.00;3.40;;;537.60;1484.80;;;;;;5092087;28;20028;-64
2021/06/15 22:52:22;;;;;;;5.35;3.20;;;537.60;1484.80;;;;;;5094212;28;20436;-64
2021/06/15 22:54:48;;;;;;;5.85;3.17;;;537.60;1484.80;;;;;;5092818;28;20026;-64
2021/06/15 22:57:14;;;;;;;7.13;3.28;;;512.90;1459.20;;;;;;5092187;28;20167;-64
2021/06/15 22:59:40;;;;;;;6.30;3.35;;;512.90;1459.20;;;;;;5092824;28;20052;-64
2021/06/15 23:02:05;;;;;;;7.25;2.90;;;512.80;1459.20;;;;;;5092391;28;20058;-64
2021/06/15 23:04:31;;;;;;;8.70;2.97;;;512.80;1459.20;;;;;;5095450;28;20035;-64
2021/06/15 23:06:57;;;;;;;6.95;3.55;;;512.80;1459.20;;;;;;5101692;28;20023;-64
2021/06/15 23:09:23;;;;;;;3.55;2.92;;;512.70;1433.60;;;;;;5102675;28;20028;-64
2021/06/15 23:11:48;;;;;;;8.93;3.13;;;512.70;1459.20;;;;;;5098071;28;20024;-63
2021/06/15 23:14:14;;;;;;;6.60;3.45;;;512.70;1459.20;;;;;;5086622;28;20032;-64
2021/06/15 23:16:40;;;;;;;4.78;2.90;;;512.70;1433.60;;;;;;5089576;28;20408;-63
2021/06/15 23:19:06;;;;;;;5.28;3.20;;;512.60;1459.20;;;;;;5092492;28;20084;-63
2021/06/15 23:21:32;;;;;;;4.75;3.03;;;512.60;1459.20;;;;;;5098015;28;20084;-64
2021/06/15 23:23:58;;;;;;;5.85;3.20;;;512.50;1459.20;;;;;;5103273;28;20035;-64
2021/06/15 23:26:23;;;;;;;6.10;3.13;;;512.60;1459.20;;;;;;5092070;28;20028;-64
2021/06/15 23:28:49;;;;;;;7.47;3.28;;;512.50;1459.20;;;;;;5098710;28;20024;-63
2021/06/15 23:31:15;;;;;;;5.15;2.95;;;512.40;1459.20;;;;;;5097574;28;20031;-64
2021/06/15 23:33:41;;;;;;;8.30;3.20;;;512.40;1459.20;;;;;;5097912;28;20385;-63
2021/06/15 23:36:06;;;;;;;8.00;3.58;;;512.30;1459.20;;;;;;5098566;28;20106;-63
2021/06/15 23:38:32;;;;;;;5.60;3.15;;;512.30;1459.20;;;;;;5091933;28;20370;-64
2021/06/15 23:40:58;;;;;;;5.07;3.08;;;512.30;1459.20;;;;;;5091397;28;20035;-64
2021/06/15 23:43:23;;;;;;;6.40;3.40;;;512.30;1459.20;;;;;;5103007;28;20047;-65
2021/06/15 23:45:49;;;;;;;5.25;3.05;;;512.30;1459.20;;;;;;5095888;28;20062;-65
2021/06/15 23:48:15;;;;;;;4.63;3.05;;;512.30;1459.20;;;;;;5109495;28;20039;-64
2021/06/15 23:50:41;;;;;;;9.73;3.95;;;512.20;1459.20;;;;;;5102853;28;20076;-64